createdAt,value
2017-10-17T00:01:07.821Z,20.20
2017-10-17T00:03:42.449Z,16.10
2017-10-17T00:06:16.713Z,26.00
2017-10-17T00:08:50.633Z,17.83
2017-10-17T00:11:24.578Z,15.00
2017-10-17T00:13:58.493Z,18.27
2017-10-17T00:16:32.386Z,15.80
2017-10-17T00:19:06.164Z,17.73
2017-10-17T00:21:39.978Z,23.17
2017-10-17T00:24:14.011Z,22.20
2017-10-17T00:26:47.950Z,20.73
2017-10-17T00:29:21.952Z,16.20
2017-10-17T00:31:55.859Z,12.80
2017-10-17T00:34:29.587Z,13.87
2017-10-17T00:37:04.246Z,27.33
2017-10-17T00:39:38.238Z,18.60
2017-10-17T00:42:12.304Z,13.90
2017-10-17T00:44:46.050Z,17.67
2017-10-17T00:47:19.803Z,14.27
2017-10-17T00:49:53.715Z,19.87
2017-10-17T00:52:27.655Z,14.80
2017-10-17T00:55:01.497Z,14.23
2017-10-17T00:57:35.379Z,12.70
2017-10-17T01:00:09.230Z,17.10
2017-10-17T01:02:43.211Z,14.87
2017-10-17T01:05:17.735Z,20.00
2017-10-17T01:07:51.865Z,13.37
2017-10-17T01:10:25.613Z,13.60
2017-10-17T01:12:59.745Z,13.10
2017-10-17T01:15:33.618Z,15.70
2017-10-17T01:18:07.467Z,14.17
2017-10-17T01:20:45.982Z,12.23
2017-10-17T01:23:23.700Z,21.60
2017-10-17T01:26:12.238Z,13.00
2017-10-17T01:28:46.007Z,14.93
2017-10-17T01:31:21.178Z,14.13
2017-10-17T01:33:54.914Z,12.13
2017-10-17T01:36:28.774Z,17.37
2017-10-17T01:39:03.375Z,11.40
2017-10-17T01:41:37.222Z,10.63
2017-10-17T01:44:14.938Z,13.50
2017-10-17T01:46:49.705Z,13.77
2017-10-17T01:49:35.238Z,10.23
2017-10-17T01:52:14.654Z,11.53
2017-10-17T01:55:05.395Z,11.43
2017-10-17T01:57:41.226Z,12.13
2017-10-17T02:00:15.071Z,19.63
2017-10-17T02:02:48.982Z,11.27
2017-10-17T02:05:22.782Z,11.53
2017-10-17T02:07:56.740Z,13.60
2017-10-17T02:10:30.630Z,19.67
2017-10-17T02:13:04.615Z,11.90
2017-10-17T02:15:38.650Z,13.80
2017-10-17T02:18:16.862Z,17.80
2017-10-17T02:20:51.041Z,10.77
2017-10-17T02:23:25.047Z,9.17
2017-10-17T02:26:03.542Z,12.60
2017-10-17T02:28:44.043Z,10.10
2017-10-17T02:31:20.570Z,8.60
2017-10-17T02:34:11.730Z,25.23
2017-10-17T02:36:46.363Z,8.80
2017-10-17T02:39:20.391Z,8.57
2017-10-17T02:41:54.235Z,14.10
2017-10-17T02:44:28.059Z,9.60
2017-10-17T02:47:01.917Z,11.80
2017-10-17T02:49:38.916Z,9.50
2017-10-17T02:52:22.296Z,10.87
2017-10-17T02:54:56.254Z,9.23
2017-10-17T02:57:30.203Z,9.17
2017-10-17T03:00:05.570Z,10.93
2017-10-17T03:02:52.414Z,8.00
2017-10-17T03:05:27.103Z,14.57
2017-10-17T03:08:04.818Z,11.00
2017-10-17T03:10:39.066Z,14.67
2017-10-17T03:13:15.675Z,10.47
2017-10-17T03:15:50.415Z,10.53
2017-10-17T03:18:24.230Z,10.37
2017-10-17T03:20:58.126Z,10.30
2017-10-17T03:23:31.884Z,10.30
2017-10-17T03:26:05.911Z,7.60
2017-10-17T03:28:56.471Z,8.67
2017-10-17T03:31:30.239Z,8.80
2017-10-17T03:34:21.704Z,12.30
2017-10-17T03:37:08.236Z,9.27
2017-10-17T03:39:45.694Z,13.93
2017-10-17T03:42:19.242Z,11.87
2017-10-17T03:44:53.797Z,14.93
2017-10-17T03:47:45.266Z,12.83
2017-10-17T03:50:21.535Z,8.07
2017-10-17T03:55:51.319Z,7.03
2017-10-17T03:58:28.898Z,7.23
2017-10-17T04:01:02.649Z,7.70
2017-10-17T04:03:43.014Z,8.10
2017-10-17T04:09:17.922Z,12.70
2017-10-17T04:11:51.739Z,29.87
2017-10-17T04:14:26.459Z,19.40
2017-10-17T04:17:26.554Z,15.33
2017-10-17T04:20:12.042Z,14.90
2017-10-17T04:22:49.764Z,10.70
2017-10-17T04:25:26.478Z,9.00
2017-10-17T04:28:04.092Z,8.57
2017-10-17T04:30:53.505Z,10.40
2017-10-17T04:33:27.476Z,9.30
2017-10-17T04:38:58.621Z,9.13
2017-10-17T04:41:53.639Z,13.37
2017-10-17T04:44:38.099Z,9.57
2017-10-17T04:47:27.731Z,12.70
2017-10-17T04:50:13.691Z,13.53
2017-10-17T04:55:47.770Z,9.17
2017-10-17T05:01:23.601Z,9.87
2017-10-17T05:07:13.451Z,9.07
2017-10-17T05:09:49.937Z,16.73
2017-10-17T05:12:33.750Z,11.37
2017-10-17T05:15:09.093Z,13.10
2017-10-17T05:18:07.094Z,22.00
2017-10-17T05:20:44.687Z,18.90
2017-10-17T05:23:36.500Z,17.73
2017-10-17T05:26:10.282Z,18.70
2017-10-17T05:28:57.023Z,25.80
2017-10-17T05:31:31.695Z,21.57
2017-10-17T05:34:13.445Z,23.93
2017-10-17T05:36:58.102Z,19.13
2017-10-17T05:39:32.842Z,24.47
2017-10-17T05:42:06.649Z,23.63
2017-10-17T05:44:57.440Z,30.53
2017-10-17T05:47:35.717Z,29.90
2017-10-17T05:53:18.674Z,23.03
2017-10-17T05:55:53.018Z,19.93
2017-10-17T05:58:27.443Z,33.40
2017-10-17T06:01:02.132Z,21.13
2017-10-17T06:03:36.816Z,23.03
2017-10-17T06:06:11.549Z,24.13
2017-10-17T06:08:46.098Z,22.10
2017-10-17T06:11:20.652Z,24.37
2017-10-17T06:13:55.176Z,27.00
2017-10-17T06:16:29.678Z,24.10
2017-10-17T06:19:04.250Z,26.87
2017-10-17T06:21:38.806Z,43.83
2017-10-17T06:24:14.267Z,14.63
2017-10-17T06:26:48.850Z,38.13
2017-10-17T06:29:23.499Z,35.97
2017-10-17T06:31:58.125Z,25.20
2017-10-17T06:34:32.582Z,28.87
2017-10-17T06:37:07.127Z,16.10
2017-10-17T06:39:42.335Z,13.93
2017-10-17T06:42:16.902Z,27.60
2017-10-17T06:44:51.433Z,23.07
2017-10-17T06:47:25.978Z,20.50
2017-10-17T06:50:00.498Z,20.07
2017-10-17T06:52:35.061Z,18.73
2017-10-17T06:55:09.814Z,27.00
2017-10-17T06:57:44.644Z,26.13
2017-10-17T07:00:18.590Z,17.00
2017-10-17T07:02:53.115Z,14.47
2017-10-17T07:05:27.650Z,13.67
2017-10-17T07:08:02.153Z,25.97
2017-10-17T07:10:36.747Z,14.47
2017-10-17T07:13:11.312Z,16.60
2017-10-17T07:15:45.770Z,16.60
2017-10-17T07:18:21.126Z,27.57
2017-10-17T07:20:55.619Z,24.70
2017-10-17T07:23:29.895Z,16.10
2017-10-17T07:26:04.462Z,21.63
2017-10-17T07:28:39.106Z,22.77
2017-10-17T07:31:13.721Z,33.57
2017-10-17T07:33:48.249Z,35.13
2017-10-17T07:36:22.735Z,36.60
2017-10-17T07:38:57.321Z,26.40
2017-10-17T07:41:31.898Z,30.53
2017-10-17T07:44:06.123Z,26.97
2017-10-17T07:46:40.601Z,25.30
2017-10-17T07:49:15.099Z,29.20
2017-10-17T07:51:49.530Z,24.13
2017-10-17T07:54:24.400Z,20.20
2017-10-17T07:56:59.113Z,22.97
2017-10-17T07:59:33.727Z,18.17
2017-10-17T08:02:08.294Z,13.10
2017-10-17T08:04:42.691Z,14.83
2017-10-17T08:07:16.394Z,17.10
2017-10-17T08:09:50.249Z,22.00
2017-10-17T08:12:24.606Z,16.50
2017-10-17T08:14:59.121Z,12.20
2017-10-17T08:17:33.806Z,10.87
2017-10-17T08:20:15.779Z,15.93
2017-10-17T08:22:49.934Z,17.10
2017-10-17T08:25:24.584Z,10.80
2017-10-17T08:27:59.164Z,23.57
2017-10-17T08:30:33.655Z,13.97
2017-10-17T08:33:08.230Z,11.10
2017-10-17T08:35:42.936Z,8.97
2017-10-17T08:38:17.075Z,11.23
2017-10-17T08:40:51.703Z,9.90
2017-10-17T08:43:26.221Z,24.10
2017-10-17T08:46:00.746Z,14.17
2017-10-17T08:48:34.990Z,9.50
2017-10-17T08:51:09.656Z,10.10
2017-10-17T08:53:44.458Z,15.13
2017-10-17T08:56:18.939Z,9.67
2017-10-17T08:58:53.583Z,9.30
2017-10-17T09:01:27.987Z,10.93
2017-10-17T09:04:02.660Z,8.17
2017-10-17T09:06:37.251Z,14.43
2017-10-17T09:09:11.714Z,12.30
2017-10-17T09:11:46.107Z,8.80
2017-10-17T09:14:20.420Z,8.47
2017-10-17T09:16:54.903Z,10.33
2017-10-17T09:19:29.585Z,11.27
2017-10-17T09:22:04.253Z,13.77
2017-10-17T09:24:38.690Z,10.83
2017-10-17T09:27:13.254Z,10.10
2017-10-17T09:29:47.894Z,8.73
2017-10-17T09:32:22.566Z,10.10
2017-10-17T09:34:57.134Z,8.63
2017-10-17T09:37:31.442Z,10.30
2017-10-17T09:40:14.214Z,11.90
2017-10-17T09:42:48.730Z,7.90
2017-10-17T09:45:23.270Z,8.23
2017-10-17T09:47:57.846Z,11.83
2017-10-17T09:50:32.480Z,10.80
2017-10-17T09:53:07.006Z,9.50
2017-10-17T09:55:41.531Z,10.40
2017-10-17T09:58:16.037Z,13.87
2017-10-17T10:00:50.623Z,8.80
2017-10-17T10:03:25.266Z,9.33
2017-10-17T10:05:59.707Z,8.47
2017-10-17T10:08:34.195Z,7.37
2017-10-17T10:11:08.712Z,8.27
2017-10-17T10:13:43.380Z,7.97
2017-10-17T10:16:17.940Z,8.80
2017-10-17T10:18:53.157Z,8.40
2017-10-17T10:21:27.808Z,9.10
2017-10-17T10:24:02.095Z,9.30
2017-10-17T10:26:37.058Z,7.90
2017-10-17T10:29:11.609Z,7.77
2017-10-17T10:31:45.943Z,7.87
2017-10-17T10:34:20.673Z,9.00
2017-10-17T10:36:55.166Z,9.47
2017-10-17T10:39:29.712Z,7.53
2017-10-17T10:42:04.102Z,10.03
2017-10-17T10:44:38.647Z,11.93
2017-10-17T10:47:13.226Z,8.50
2017-10-17T10:49:47.806Z,11.20
2017-10-17T10:52:22.334Z,7.30
2017-10-17T10:54:56.878Z,12.00
2017-10-17T10:57:31.503Z,18.37
2017-10-17T11:00:08.806Z,11.43
2017-10-17T11:02:44.023Z,10.93
2017-10-17T11:05:18.535Z,22.23
2017-10-17T11:07:53.083Z,14.60
2017-10-17T11:10:27.650Z,11.50
2017-10-17T11:13:02.344Z,11.67
2017-10-17T11:15:36.914Z,11.07
2017-10-17T11:18:11.344Z,12.30
2017-10-17T11:20:45.970Z,10.70
2017-10-17T11:23:20.614Z,10.93
2017-10-17T11:25:55.130Z,10.30
2017-10-17T11:28:29.703Z,11.03
2017-10-17T11:31:04.207Z,10.07
2017-10-17T11:33:38.463Z,17.23
2017-10-17T11:36:13.506Z,15.13
2017-10-17T11:38:48.434Z,8.73
2017-10-17T11:41:33.971Z,13.07
2017-10-17T11:44:11.534Z,11.37
2017-10-17T11:46:46.023Z,10.23
2017-10-17T11:49:20.407Z,17.83
2017-10-17T11:51:54.986Z,16.10
2017-10-17T11:54:29.454Z,11.37
2017-10-17T11:57:03.943Z,10.40
2017-10-17T11:59:38.377Z,16.90
2017-10-17T12:02:12.958Z,10.40
2017-10-17T12:04:47.602Z,9.90
2017-10-17T12:07:22.128Z,12.17
2017-10-17T12:09:56.749Z,10.40
2017-10-17T12:12:31.034Z,14.57
2017-10-17T12:15:07.940Z,12.60
2017-10-17T12:17:42.586Z,15.23
2017-10-17T12:20:17.205Z,12.67
2017-10-17T12:22:51.460Z,14.03
2017-10-17T12:25:26.099Z,11.83
2017-10-17T12:28:00.284Z,14.53
2017-10-17T12:30:34.802Z,16.33
2017-10-17T12:33:09.303Z,19.13
2017-10-17T12:35:43.838Z,19.53
2017-10-17T12:38:18.323Z,18.20
2017-10-17T12:40:52.851Z,25.03
2017-10-17T12:43:27.512Z,26.23
2017-10-17T12:46:01.894Z,32.03
2017-10-17T12:48:36.558Z,28.43
2017-10-17T12:51:11.133Z,30.37
2017-10-17T12:53:45.623Z,31.10
2017-10-17T12:56:20.126Z,36.57
2017-10-17T12:58:54.473Z,28.87
2017-10-17T13:01:29.097Z,37.60
2017-10-17T13:04:04.320Z,31.70
2017-10-17T13:06:39.002Z,33.87
2017-10-17T13:09:14.222Z,37.10
2017-10-17T13:11:48.615Z,33.17
2017-10-17T13:14:23.094Z,28.87
2017-10-17T13:16:57.321Z,38.67
2017-10-17T13:19:31.531Z,40.60
2017-10-17T13:22:06.111Z,27.40
2017-10-17T13:24:40.734Z,35.40
2017-10-17T13:27:15.332Z,32.43
2017-10-17T13:29:50.032Z,34.10
2017-10-17T13:32:24.570Z,38.33
2017-10-17T13:34:59.204Z,34.00
2017-10-17T13:37:33.799Z,33.40
2017-10-17T13:40:12.610Z,31.93
2017-10-17T13:42:47.830Z,33.90
2017-10-17T13:45:22.411Z,30.50
2017-10-17T13:47:56.943Z,24.50
2017-10-17T13:50:31.468Z,38.13
2017-10-17T13:53:05.962Z,26.93
2017-10-17T13:55:40.727Z,23.07
2017-10-17T13:58:14.982Z,25.10
2017-10-17T14:00:49.492Z,30.63
2017-10-17T14:03:23.919Z,21.43
2017-10-17T14:05:58.281Z,26.23
2017-10-17T14:08:33.496Z,20.00
2017-10-17T14:11:08.070Z,18.70
2017-10-17T14:13:42.350Z,22.53
2017-10-17T14:16:16.974Z,23.13
2017-10-17T14:18:51.435Z,35.37
2017-10-17T14:21:25.982Z,25.00
2017-10-17T14:24:00.299Z,21.60
2017-10-17T14:26:35.647Z,25.17
2017-10-17T14:29:10.250Z,24.23
2017-10-17T14:31:45.607Z,20.07
2017-10-17T14:34:20.245Z,20.83
2017-10-17T14:36:54.554Z,20.37
2017-10-17T14:39:29.185Z,26.17
2017-10-17T14:42:03.734Z,24.03
2017-10-17T14:44:38.363Z,18.90
2017-10-17T14:47:12.983Z,22.93
2017-10-17T14:49:47.562Z,22.30
2017-10-17T14:52:21.918Z,26.70
2017-10-17T14:54:56.579Z,17.33
2017-10-17T14:57:31.143Z,28.50
2017-10-17T15:00:08.395Z,21.43
2017-10-17T15:02:43.087Z,22.43
2017-10-17T15:05:18.019Z,28.07
2017-10-17T15:07:52.506Z,22.23
2017-10-17T15:10:27.075Z,23.60
2017-10-17T15:13:01.554Z,20.53
2017-10-17T15:15:36.366Z,21.07
2017-10-17T15:18:11.122Z,26.20
2017-10-17T15:20:45.690Z,52.23
2017-10-17T15:23:20.328Z,20.07
2017-10-17T15:25:54.959Z,23.90
2017-10-17T15:28:29.450Z,25.50
2017-10-17T15:31:03.993Z,29.00
2017-10-17T15:33:38.480Z,25.43
2017-10-17T15:36:13.059Z,28.30
2017-10-17T15:38:47.578Z,22.50
2017-10-17T15:41:22.082Z,21.20
2017-10-17T15:43:56.616Z,21.23
2017-10-17T15:46:31.253Z,20.80
2017-10-17T15:49:05.702Z,30.13
2017-10-17T15:51:40.326Z,30.03
2017-10-17T15:54:14.979Z,22.90
2017-10-17T15:56:49.444Z,18.67
2017-10-17T15:59:23.930Z,25.40
2017-10-17T16:01:58.555Z,24.23
2017-10-17T16:04:33.187Z,25.23
2017-10-17T16:07:08.517Z,29.67
2017-10-17T16:09:42.978Z,24.83
2017-10-17T16:12:17.554Z,25.30
2017-10-17T16:14:52.222Z,25.50
2017-10-17T16:17:27.039Z,23.80
2017-10-17T16:20:01.659Z,18.63
2017-10-17T16:22:36.292Z,28.13
2017-10-17T16:25:10.799Z,29.30
2017-10-17T16:27:46.242Z,21.53
2017-10-17T16:30:21.679Z,25.83
2017-10-17T16:32:56.172Z,22.93
2017-10-17T16:35:30.779Z,30.63
2017-10-17T16:38:04.803Z,22.57
2017-10-17T16:40:39.499Z,24.03
2017-10-17T16:43:13.963Z,25.33
2017-10-17T16:45:48.556Z,24.90
2017-10-17T16:48:23.290Z,28.83
2017-10-17T16:50:57.550Z,27.97
2017-10-17T16:53:32.021Z,33.80
2017-10-17T16:56:06.671Z,25.40
2017-10-17T16:58:41.305Z,30.87
2017-10-17T17:01:15.824Z,28.27
2017-10-17T17:03:50.366Z,34.67
2017-10-17T17:06:25.636Z,29.47
2017-10-17T17:09:00.230Z,41.30
2017-10-17T17:11:35.587Z,26.47
2017-10-17T17:14:10.103Z,29.53
2017-10-17T17:16:44.618Z,25.50
2017-10-17T17:19:19.127Z,31.13
2017-10-17T17:21:53.558Z,27.00
2017-10-17T17:24:27.902Z,30.73
2017-10-17T17:27:02.431Z,27.90
2017-10-17T17:29:36.774Z,22.77
2017-10-17T17:32:11.319Z,34.90
2017-10-17T17:34:45.902Z,33.07
2017-10-17T17:37:20.487Z,31.20
2017-10-17T17:39:55.003Z,33.50
2017-10-17T17:42:29.583Z,32.50
2017-10-17T17:45:13.048Z,36.13
2017-10-17T17:47:47.555Z,31.47
2017-10-17T17:50:22.129Z,39.20
2017-10-17T17:52:56.826Z,49.70
2017-10-17T17:55:31.435Z,36.83
2017-10-17T17:58:05.954Z,35.00
2017-10-17T18:00:39.754Z,37.53
2017-10-17T18:03:14.369Z,31.67
2017-10-17T18:05:49.003Z,36.70
2017-10-17T18:08:23.466Z,38.63
2017-10-17T18:10:57.858Z,38.07
2017-10-17T18:13:32.291Z,41.20
2017-10-17T18:16:06.598Z,30.70
2017-10-17T18:18:41.231Z,40.90
2017-10-17T18:21:15.758Z,34.97
2017-10-17T18:23:50.512Z,40.30
2017-10-17T18:26:24.757Z,41.00
2017-10-17T18:28:59.280Z,38.93
2017-10-17T18:31:33.934Z,53.70
2017-10-17T18:34:08.562Z,43.03
2017-10-17T18:36:43.162Z,41.37
2017-10-17T18:39:17.811Z,40.80
2017-10-17T18:41:52.398Z,34.03
2017-10-17T18:44:27.023Z,38.20
2017-10-17T18:47:01.622Z,41.60
2017-10-17T18:49:36.151Z,33.30
2017-10-17T18:52:10.789Z,29.43
2017-10-17T18:54:45.668Z,33.70
2017-10-17T18:57:20.080Z,32.57
2017-10-17T18:59:54.739Z,39.90
2017-10-17T19:02:29.059Z,37.80
2017-10-17T19:05:05.814Z,36.97
2017-10-17T19:07:40.315Z,39.53
2017-10-17T19:10:15.646Z,36.67
2017-10-17T19:12:50.143Z,32.83
2017-10-17T19:15:24.797Z,43.40
2017-10-17T19:17:59.395Z,29.30
2017-10-17T19:20:34.667Z,27.60
2017-10-17T19:23:09.302Z,29.93
2017-10-17T19:25:43.862Z,33.30
2017-10-17T19:28:18.468Z,30.80
2017-10-17T19:30:53.189Z,26.37
2017-10-17T19:33:27.864Z,35.23
2017-10-17T19:36:02.413Z,26.70
2017-10-17T19:38:37.008Z,35.00
2017-10-17T19:41:11.543Z,29.60
2017-10-17T19:43:46.043Z,32.43
2017-10-17T19:46:20.653Z,29.67
2017-10-17T19:48:55.187Z,35.23
2017-10-17T19:51:29.751Z,30.57
2017-10-17T19:54:04.273Z,30.40
2017-10-17T19:56:38.858Z,33.60
2017-10-17T19:59:13.375Z,29.53
2017-10-17T20:01:47.966Z,29.63
2017-10-17T20:04:22.490Z,28.77
2017-10-17T20:06:57.200Z,35.50
2017-10-17T20:09:31.287Z,30.13
2017-10-17T20:12:05.977Z,25.40
2017-10-17T20:14:40.450Z,29.87
2017-10-17T20:17:14.703Z,29.70
2017-10-17T20:19:49.302Z,34.10
2017-10-17T20:22:23.570Z,34.77
2017-10-17T20:24:58.095Z,29.73
2017-10-17T20:27:33.154Z,37.53
2017-10-17T20:30:11.606Z,30.63
2017-10-17T20:32:45.492Z,38.73
2017-10-17T20:35:20.447Z,33.37
2017-10-17T20:37:55.066Z,30.47
2017-10-17T20:40:29.274Z,43.07
2017-10-17T20:43:03.460Z,35.63
2017-10-17T20:45:37.961Z,32.63
2017-10-17T20:48:12.582Z,38.40
2017-10-17T20:50:47.214Z,41.43
2017-10-17T20:53:21.770Z,34.87
2017-10-17T20:55:56.368Z,41.20
2017-10-17T20:58:31.036Z,39.67
2017-10-17T21:01:06.319Z,46.57
2017-10-17T21:03:40.920Z,39.17
2017-10-17T21:06:15.474Z,42.10
2017-10-17T21:08:50.123Z,49.43
2017-10-17T21:11:24.659Z,42.50
2017-10-17T21:13:59.171Z,39.10
2017-10-17T21:16:33.776Z,34.03
2017-10-17T21:19:08.575Z,39.60
2017-10-17T21:21:43.202Z,35.10
2017-10-17T21:24:17.646Z,33.03
2017-10-17T21:26:52.166Z,33.10
2017-10-17T21:29:26.671Z,35.97
2017-10-17T21:32:01.254Z,38.33
2017-10-17T21:34:36.652Z,37.90
2017-10-17T21:37:11.115Z,38.63
2017-10-17T21:39:45.709Z,41.20
2017-10-17T21:42:20.338Z,39.00
2017-10-17T21:44:55.024Z,36.43
2017-10-17T21:47:29.486Z,38.80
2017-10-17T21:50:09.166Z,43.60
2017-10-17T21:52:43.663Z,44.33
2017-10-17T21:55:18.187Z,47.00
2017-10-17T21:57:52.814Z,42.20
2017-10-17T22:00:38.411Z,47.37
2017-10-17T22:03:13.078Z,37.63
2017-10-17T22:05:48.458Z,39.70
2017-10-17T22:08:23.049Z,44.00
2017-10-17T22:10:57.588Z,38.63
2017-10-17T22:13:32.154Z,35.47
2017-10-17T22:16:06.663Z,36.07
2017-10-17T22:18:41.322Z,29.80
2017-10-17T22:21:16.065Z,33.73
2017-10-17T22:23:50.299Z,36.60
2017-10-17T22:26:24.916Z,31.17
2017-10-17T22:28:59.519Z,37.33
2017-10-17T22:31:34.084Z,34.43
2017-10-17T22:34:08.746Z,44.20
2017-10-17T22:36:43.459Z,39.37
2017-10-17T22:39:17.918Z,43.90
2017-10-17T22:41:52.490Z,35.53
2017-10-17T22:44:27.038Z,36.20
2017-10-17T22:47:02.383Z,43.63
2017-10-17T22:49:36.908Z,35.07
2017-10-17T22:52:11.536Z,45.63
2017-10-17T22:54:46.227Z,41.30
2017-10-17T22:57:20.776Z,38.27
2017-10-17T22:59:55.259Z,35.50
2017-10-17T23:02:29.887Z,34.33
2017-10-17T23:05:06.353Z,33.00
2017-10-17T23:07:40.842Z,36.77
2017-10-17T23:10:15.171Z,34.33
2017-10-17T23:12:49.874Z,37.50
2017-10-17T23:15:24.482Z,46.67
2017-10-17T23:18:10.292Z,43.37
2017-10-17T23:20:44.955Z,40.43
2017-10-17T23:23:19.517Z,35.83
2017-10-17T23:25:54.091Z,35.27
2017-10-17T23:28:28.603Z,34.20
2017-10-17T23:31:04.024Z,30.90
2017-10-17T23:33:38.538Z,39.10
2017-10-17T23:36:13.196Z,42.93
2017-10-17T23:38:47.819Z,34.70
2017-10-17T23:41:22.446Z,35.70
2017-10-17T23:43:57.859Z,32.53
2017-10-17T23:46:32.309Z,32.37
2017-10-17T23:49:06.829Z,42.03
2017-10-17T23:51:41.040Z,36.73
2017-10-17T23:54:15.726Z,35.27
2017-10-17T23:56:50.356Z,35.87
2017-10-17T23:59:24.831Z,35.33
